Time,TemperatureF,DewpointF,PressureIn,WindDirection,WindDirectionDegrees,WindSpeedMPH,WindSpeedGustMPH,Humidity,HourlyPrecipIn,Conditions,Clouds,dailyrainin,SoftwareType,DateUTC
2013-03-05 00:00:00,48.2,47.0,30.06,SSW,209,6.0,8.0,95,0.00,,,0.00,,2013-03-05 08:00:00,
2013-03-05 00:10:00,48.2,47.0,30.06,SSW,209,8.0,9.0,94,0.00,,,0.00,,2013-03-05 08:10:00,
2013-03-05 00:20:00,48.3,47.0,30.07,SW,219,7.0,11.0,94,0.00,,,0.00,,2013-03-05 08:20:00,
2013-03-05 00:30:00,48.3,46.0,30.07,SSW,207,8.0,13.0,93,0.00,,,0.00,,2013-03-05 08:30:00,
2013-03-05 00:40:00,48.3,46.0,30.07,SSW,204,9.0,11.0,93,0.00,,,0.00,,2013-03-05 08:40:00,
2013-03-05 00:50:00,48.3,46.0,30.07,SSW,209,7.0,9.0,92,0.00,,,0.00,,2013-03-05 08:50:00,
2013-03-05 01:00:00,48.3,46.0,30.06,South,183,4.0,9.0,92,0.00,,,0.00,,2013-03-05 09:00:00,
2013-03-05 01:10:00,48.4,46.0,30.06,SSE,168,0.0,7.0,92,0.00,,,0.00,,2013-03-05 09:10:00,
2013-03-05 01:20:00,48.3,46.0,30.06,SSE,160,0.0,3.0,92,0.00,,,0.00,,2013-03-05 09:20:00,
2013-03-05 01:30:00,48.2,46.0,30.06,South,169,2.0,4.0,92,0.00,,,0.00,,2013-03-05 09:30:00,
2013-03-05 01:40:00,48.3,46.0,30.06,SSW,209,6.0,7.0,92,0.00,,,0.00,,2013-03-05 09:40:00,
2013-03-05 01:50:00,48.3,46.0,30.06,South,179,2.0,9.0,92,0.00,,,0.00,,2013-03-05 09:50:00,
2013-03-05 02:00:00,48.4,46.0,30.06,South,188,5.0,6.0,92,0.00,,,0.00,,2013-03-05 10:00:00,
2013-03-05 02:10:00,48.3,46.0,30.05,SSW,205,7.0,9.0,92,0.00,,,0.00,,2013-03-05 10:10:00,
2013-03-05 02:20:00,48.3,46.0,30.05,SSW,202,4.0,7.0,91,0.00,,,0.00,,2013-03-05 10:20:00,
2013-03-05 02:30:00,48.3,46.0,30.05,South,188,1.0,5.0,91,0.00,,,0.00,,2013-03-05 10:30:00,
2013-03-05 02:40:00,48.3,46.0,30.04,SSW,196,5.0,6.0,91,0.00,,,0.00,,2013-03-05 10:40:00,
2013-03-05 02:50:00,48.3,46.0,30.04,SSW,206,3.0,7.0,91,0.00,,,0.00,,2013-03-05 10:50:00,
2013-03-05 03:00:00,48.3,46.0,30.04,SSW,192,3.0,8.0,91,0.00,,,0.00,,2013-03-05 11:00:00,
2013-03-05 03:10:00,48.3,46.0,30.03,South,184,3.0,5.0,91,0.00,,,0.00,,2013-03-05 11:10:00,
2013-03-05 03:20:00,48.1,46.0,30.03,South,184,1.0,4.0,91,0.00,,,0.00,,2013-03-05 11:20:00,
2013-03-05 03:30:00,48.0,46.0,30.04,South,184,0.0,2.0,91,0.00,,,0.00,,2013-03-05 11:30:00,
2013-03-05 03:40:00,48.2,46.0,30.04,WSW,252,3.0,6.0,92,0.00,,,0.00,,2013-03-05 11:40:00,
2013-03-05 03:50:00,48.0,46.0,30.05,WSW,249,5.0,8.0,92,0.00,,,0.00,,2013-03-05 11:50:00,
2013-03-05 04:00:00,48.1,46.0,30.05,WSW,243,6.0,7.0,92,0.00,,,0.00,,2013-03-05 12:00:00,
2013-03-05 04:10:00,48.0,46.0,30.05,WSW,242,4.0,6.0,92,0.00,,,0.00,,2013-03-05 12:10:00,
2013-03-05 04:20:00,48.0,46.0,30.05,WSW,242,1.0,3.0,92,0.00,,,0.00,,2013-03-05 12:20:00,
2013-03-05 04:30:00,48.1,46.0,30.05,WSW,242,1.0,3.0,92,0.00,,,0.00,,2013-03-05 12:30:00,
2013-03-05 04:40:00,48.1,46.0,30.05,WSW,242,2.0,3.0,92,0.00,,,0.00,,2013-03-05 12:40:00,
2013-03-05 04:50:00,48.1,46.0,30.04,WSW,242,3.0,3.0,92,0.00,,,0.00,,2013-03-05 12:50:00,
2013-03-05 05:00:00,48.1,46.0,30.05,WSW,242,2.0,4.0,92,0.00,,,0.00,,2013-03-05 13:00:00,
2013-03-05 05:10:00,48.0,46.0,30.05,WNW,289,3.0,4.0,92,0.00,,,0.00,,2013-03-05 13:10:00,
2013-03-05 05:20:00,47.9,46.0,30.05,NW,306,4.0,6.0,92,0.00,,,0.00,,2013-03-05 13:20:00,
2013-03-05 05:30:00,47.9,46.0,30.05,NW,312,2.0,6.0,92,0.00,,,0.00,,2013-03-05 13:30:00,
2013-03-05 05:40:00,47.8,45.0,30.06,WNW,291,5.0,6.0,91,0.00,,,0.00,,2013-03-05 13:40:00,
2013-03-05 05:50:00,47.9,45.0,30.06,WNW,288,5.0,7.0,91,0.00,,,0.00,,2013-03-05 13:50:00,
2013-03-05 06:00:00,47.9,45.0,30.06,WNW,288,6.0,6.0,90,0.00,,,0.00,,2013-03-05 14:00:00,
2013-03-05 06:10:00,47.8,45.0,30.06,WNW,296,5.0,7.0,90,0.00,,,0.00,,2013-03-05 14:10:00,
2013-03-05 06:20:00,47.7,45.0,30.06,WNW,284,0.0,6.0,89,0.00,,,0.00,,2013-03-05 14:20:00,
2013-03-05 06:30:00,47.7,45.0,30.06,WNW,284,3.0,3.0,89,0.00,,,0.00,,2013-03-05 14:30:00,
2013-03-05 06:40:00,47.7,45.0,30.06,WNW,284,3.0,5.0,89,0.00,,,0.00,,2013-03-05 14:40:00,
2013-03-05 06:50:00,47.7,45.0,30.06,NW,309,6.0,7.0,90,0.00,,,0.00,,2013-03-05 14:50:00,
2013-03-05 07:00:00,47.7,45.0,30.06,NW,313,5.0,8.0,91,0.00,,,0.00,,2013-03-05 15:00:00,
2013-03-05 07:10:00,47.7,45.0,30.06,WNW,299,4.0,6.0,91,0.00,,,0.00,,2013-03-05 15:10:00,
2013-03-05 07:20:00,47.8,45.0,30.06,WNW,300,2.0,3.0,91,0.00,,,0.00,,2013-03-05 15:20:00,
2013-03-05 07:30:00,47.9,45.0,30.06,WNW,300,0.0,0.0,91,0.00,,,0.00,,2013-03-05 15:30:00,
2013-03-05 07:40:00,48.2,46.0,30.06,WNW,299,0.0,2.0,91,0.00,,,0.00,,2013-03-05 15:40:00,
2013-03-05 07:50:00,48.6,46.0,30.06,NNE,22,0.0,1.0,91,0.00,,,0.00,,2013-03-05 15:50:00,
2013-03-05 08:00:00,48.7,46.0,30.06,NW,311,2.0,3.0,91,0.00,,,0.00,,2013-03-05 16:00:00,
2013-03-05 08:10:00,48.5,46.0,30.06,WNW,287,2.0,6.0,90,0.00,,,0.00,,2013-03-05 16:10:00,
2013-03-05 08:20:00,48.6,46.0,30.06,WNW,287,0.0,3.0,90,0.00,,,0.00,,2013-03-05 16:20:00,
2013-03-05 08:30:00,48.8,46.0,30.06,West,268,2.0,3.0,90,0.00,,,0.00,,2013-03-05 16:30:00,
2013-03-05 08:40:00,48.8,46.0,30.05,NNE,24,0.0,2.0,90,0.00,,,0.00,,2013-03-05 16:40:00,
2013-03-05 08:50:00,49.1,46.0,30.06,SSW,203,3.0,6.0,88,0.00,,,0.00,,2013-03-05 16:50:00,
2013-03-05 09:00:00,49.6,46.0,30.06,SSE,155,1.0,6.0,87,0.00,,,0.00,,2013-03-05 17:00:00,
2013-03-05 09:10:00,49.7,45.0,30.06,SSW,202,2.0,8.0,85,0.00,,,0.00,,2013-03-05 17:10:00,
2013-03-05 09:20:00,50.3,46.0,30.07,SW,215,9.0,9.0,85,0.00,,,0.00,,2013-03-05 17:20:00,
2013-03-05 09:30:00,50.1,44.0,30.07,WSW,240,6.0,12.0,80,0.00,,,0.00,,2013-03-05 17:30:00,
2013-03-05 09:40:00,50.0,44.0,30.08,WSW,250,10.0,13.0,80,0.00,,,0.00,,2013-03-05 17:40:00,
2013-03-05 09:50:00,49.9,44.0,30.08,WSW,248,11.0,14.0,80,0.00,,,0.00,,2013-03-05 17:50:00,
2013-03-05 10:00:00,50.4,44.0,30.08,SW,226,11.0,12.0,80,0.00,,,0.00,,2013-03-05 18:00:00,
2013-03-05 10:10:00,50.3,44.0,30.07,SW,218,7.0,12.0,79,0.00,,,0.00,,2013-03-05 18:10:00,
2013-03-05 10:20:00,50.8,45.0,30.07,SW,230,10.0,13.0,79,0.00,,,0.00,,2013-03-05 18:20:00,
2013-03-05 10:30:00,50.9,45.0,30.08,WSW,238,10.0,13.0,79,0.00,,,0.00,,2013-03-05 18:30:00,
2013-03-05 10:40:00,50.7,43.0,30.08,WSW,247,7.0,14.0,76,0.00,,,0.00,,2013-03-05 18:40:00,
2013-03-05 10:50:00,51.9,45.0,30.07,SSW,205,17.0,17.0,77,0.00,,,0.00,,2013-03-05 18:50:00,
2013-03-05 11:00:00,51.1,44.0,30.07,SW,221,8.0,15.0,77,0.00,,,0.00,,2013-03-05 19:00:00,
2013-03-05 11:10:00,51.7,44.0,30.06,South,186,5.0,11.0,76,0.00,,,0.00,,2013-03-05 19:10:00,
2013-03-05 11:20:00,52.2,44.0,30.07,SSW,200,11.0,15.0,74,0.00,,,0.00,,2013-03-05 19:20:00,
2013-03-05 11:30:00,51.8,44.0,30.06,South,180,3.0,16.0,74,0.00,,,0.00,,2013-03-05 19:30:00,
2013-03-05 11:40:00,52.2,44.0,30.06,SW,225,6.0,16.0,74,0.00,,,0.00,,2013-03-05 19:40:00,
2013-03-05 11:50:00,52.4,44.0,30.05,SW,221,10.0,16.0,73,0.00,,,0.00,,2013-03-05 19:50:00,
2013-03-05 12:00:00,52.3,45.0,30.05,SW,236,11.0,16.0,75,0.00,,,0.00,,2013-03-05 20:00:00,
2013-03-05 12:10:00,51.5,44.0,30.05,WSW,242,13.0,17.0,76,0.00,,,0.00,,2013-03-05 20:10:00,
2013-03-05 12:20:00,51.7,44.0,30.04,SW,221,13.0,17.0,75,0.00,,,0.00,,2013-03-05 20:20:00,
2013-03-05 12:30:00,51.5,43.0,30.04,SW,224,9.0,16.0,74,0.00,,,0.00,,2013-03-05 20:30:00,
2013-03-05 12:40:00,52.1,45.0,30.04,WSW,240,14.0,17.0,77,0.00,,,0.00,,2013-03-05 20:40:00,
2013-03-05 12:50:00,51.9,44.0,30.04,WSW,239,13.0,18.0,75,0.00,,,0.00,,2013-03-05 20:50:00,
2013-03-05 13:00:00,51.9,44.0,30.03,SW,233,14.0,18.0,75,0.00,,,0.00,,2013-03-05 21:00:00,
2013-03-05 13:10:00,52.2,45.0,30.03,WSW,242,12.0,16.0,77,0.00,,,0.00,,2013-03-05 21:10:00,
2013-03-05 13:20:00,51.2,44.0,30.03,WSW,243,8.0,16.0,75,0.00,,,0.00,,2013-03-05 21:20:00,
2013-03-05 13:30:00,51.6,44.0,30.02,SW,236,9.0,15.0,76,0.00,,,0.00,,2013-03-05 21:30:00,
2013-03-05 13:40:00,51.6,44.0,30.02,SW,215,10.0,18.0,76,0.00,,,0.00,,2013-03-05 21:40:00,
2013-03-05 13:50:00,51.7,44.0,30.02,WSW,248,9.0,14.0,74,0.00,,,0.00,,2013-03-05 21:50:00,
2013-03-05 14:00:00,52.1,44.0,30.02,West,272,9.0,18.0,74,0.00,,,0.00,,2013-03-05 22:00:00,
2013-03-05 14:10:00,51.6,44.0,30.01,WSW,242,12.0,18.0,74,0.00,,,0.00,,2013-03-05 22:10:00,
2013-03-05 14:20:00,51.8,44.0,30.01,West,279,8.0,17.0,76,0.00,,,0.00,,2013-03-05 22:20:00,
2013-03-05 14:30:00,50.7,44.0,30.01,WSW,249,11.0,15.0,77,0.00,,,0.00,,2013-03-05 22:30:00,
2013-03-05 14:40:00,50.4,43.0,30.00,WSW,252,9.0,15.0,77,0.00,,,0.00,,2013-03-05 22:40:00,
2013-03-05 14:50:00,50.1,44.0,30.00,SW,234,9.0,13.0,79,0.00,,,0.00,,2013-03-05 22:50:00,
2013-03-05 15:00:00,50.8,44.0,30.00,West,262,10.0,11.0,76,0.00,,,0.00,,2013-03-05 23:00:00,
2013-03-05 15:10:00,50.4,44.0,30.00,SW,232,6.0,11.0,78,0.00,,,0.00,,2013-03-05 23:10:00,
2013-03-05 15:20:00,50.3,43.0,30.00,West,263,7.0,10.0,77,0.00,,,0.00,,2013-03-05 23:20:00,
2013-03-05 15:30:00,50.4,43.0,30.00,WSW,252,5.0,10.0,77,0.00,,,0.00,,2013-03-05 23:30:00,
2013-03-05 15:40:00,49.6,43.0,30.00,West,262,6.0,12.0,79,0.00,,,0.00,,2013-03-05 23:40:00,
2013-03-05 15:50:00,49.2,43.0,30.00,West,259,9.0,11.0,78,0.00,,,0.00,,2013-03-05 23:50:00,
2013-03-05 16:00:00,49.2,43.0,30.00,West,279,7.0,13.0,79,0.00,,,0.00,,2013-03-06 00:00:00,
2013-03-05 16:10:00,49.0,43.0,30.00,WSW,249,10.0,11.0,80,0.00,,,0.00,,2013-03-06 00:10:00,
2013-03-05 16:20:00,48.9,43.0,30.00,WSW,257,6.0,10.0,80,0.00,,,0.00,,2013-03-06 00:20:00,
2013-03-05 16:30:00,49.0,43.0,30.00,WSW,239,6.0,10.0,80,0.00,,,0.00,,2013-03-06 00:30:00,
2013-03-05 16:40:00,48.9,43.0,29.99,WSW,245,7.0,8.0,80,0.00,,,0.00,,2013-03-06 00:40:00,
2013-03-05 16:50:00,48.7,43.0,29.99,West,275,5.0,8.0,80,0.00,,,0.00,,2013-03-06 00:50:00,
2013-03-05 17:00:00,48.7,43.0,29.99,West,264,5.0,8.0,80,0.00,,,0.00,,2013-03-06 01:00:00,
2013-03-05 17:10:00,48.7,43.0,30.00,WSW,245,6.0,9.0,80,0.00,,,0.00,,2013-03-06 01:10:00,
2013-03-05 17:20:00,48.8,43.0,29.99,WSW,254,4.0,9.0,80,0.00,,,0.00,,2013-03-06 01:20:00,
2013-03-05 17:30:00,48.8,43.0,29.99,SW,218,4.0,9.0,81,0.00,,,0.00,,2013-03-06 01:30:00,
2013-03-05 17:40:00,48.8,43.0,29.99,SSW,209,7.0,12.0,81,0.00,,,0.00,,2013-03-06 01:40:00,
2013-03-05 17:50:00,49.0,43.0,30.00,SW,229,11.0,15.0,79,0.00,,,0.00,,2013-03-06 01:50:00,
2013-03-05 18:00:00,48.9,43.0,30.00,SW,232,10.0,13.0,80,0.00,,,0.00,,2013-03-06 02:00:00,
2013-03-05 18:10:00,48.8,43.0,30.01,WSW,243,12.0,13.0,79,0.00,,,0.00,,2013-03-06 02:10:00,
2013-03-05 18:20:00,48.9,43.0,30.01,SW,230,11.0,13.0,80,0.00,,,0.00,,2013-03-06 02:20:00,
2013-03-05 18:30:00,48.8,43.0,30.01,SW,220,12.0,16.0,79,0.00,,,0.00,,2013-03-06 02:30:00,
2013-03-05 18:40:00,48.9,42.0,30.01,SW,216,11.0,16.0,78,0.00,,,0.00,,2013-03-06 02:40:00,
2013-03-05 18:50:00,48.9,43.0,30.01,SSW,213,8.0,14.0,79,0.00,,,0.00,,2013-03-06 02:50:00,
2013-03-05 19:00:00,48.9,43.0,30.01,SW,214,13.0,13.0,79,0.00,,,0.00,,2013-03-06 03:00:00,
2013-03-05 19:10:00,48.9,43.0,30.01,SSW,196,8.0,15.0,79,0.00,,,0.00,,2013-03-06 03:10:00,
2013-03-05 19:20:00,49.0,43.0,30.00,SSW,204,15.0,16.0,79,0.00,,,0.00,,2013-03-06 03:20:00,
2013-03-05 19:30:00,49.1,43.0,30.00,SSW,208,17.0,19.0,78,0.00,,,0.00,,2013-03-06 03:30:00,
2013-03-05 19:40:00,49.1,42.0,30.01,SW,223,10.0,19.0,77,0.00,,,0.00,,2013-03-06 03:40:00,
2013-03-05 19:50:00,49.1,43.0,30.01,SW,222,8.0,14.0,79,0.00,,,0.00,,2013-03-06 03:50:00,
2013-03-05 20:00:00,49.0,42.0,30.01,SW,219,14.0,17.0,77,0.00,,,0.00,,2013-03-06 04:00:00,
2013-03-05 20:10:00,49.0,43.0,30.01,SSW,211,8.0,16.0,79,0.00,,,0.00,,2013-03-06 04:10:00,
2013-03-05 20:20:00,49.0,43.0,30.02,SSW,213,13.0,17.0,79,0.00,,,0.00,,2013-03-06 04:20:00,
2013-03-05 20:30:00,48.9,42.0,30.02,SSW,200,17.0,21.0,77,0.00,,,0.00,,2013-03-06 04:30:00,
2013-03-05 20:40:00,48.8,42.0,30.02,SSW,204,10.0,20.0,78,0.00,,,0.00,,2013-03-06 04:40:00,
2013-03-05 20:50:00,48.8,43.0,30.03,SSW,209,9.0,11.0,79,0.00,,,0.00,,2013-03-06 04:50:00,
2013-03-05 21:00:00,49.0,43.0,30.03,SSW,202,11.0,17.0,80,0.00,,,0.00,,2013-03-06 05:00:00,
2013-03-05 21:10:00,49.0,43.0,30.03,South,177,12.0,21.0,80,0.00,,,0.00,,2013-03-06 05:10:00,
2013-03-05 21:20:00,48.9,43.0,30.03,SSE,148,0.0,15.0,79,0.00,,,0.00,,2013-03-06 05:20:00,
2013-03-05 21:30:00,48.6,43.0,30.02,SSE,153,6.0,10.0,80,0.00,,,0.00,,2013-03-06 05:30:00,
2013-03-05 21:40:00,48.5,43.0,30.02,SSE,151,2.0,12.0,81,0.00,,,0.00,,2013-03-06 05:40:00,
2013-03-05 21:50:00,48.3,43.0,30.02,SSE,155,1.0,9.0,81,0.00,,,0.00,,2013-03-06 05:50:00,
2013-03-05 22:00:00,48.4,43.0,30.01,SSE,148,1.0,9.0,81,0.00,,,0.00,,2013-03-06 06:00:00,
2013-03-05 22:10:00,48.4,43.0,30.01,SSE,151,4.0,15.0,82,0.00,,,0.00,,2013-03-06 06:10:00,
2013-03-05 22:20:00,48.2,43.0,30.02,South,178,2.0,13.0,83,0.00,,,0.00,,2013-03-06 06:20:00,
2013-03-05 22:30:00,48.7,43.0,30.03,SSW,193,9.0,17.0,82,0.00,,,0.00,,2013-03-06 06:30:00,
2013-03-05 22:40:00,49.0,43.0,30.03,South,174,4.0,13.0,81,0.00,,,0.00,,2013-03-06 06:40:00,
2013-03-05 22:50:00,49.0,43.0,30.02,SSE,158,4.0,8.0,81,0.00,,,0.00,,2013-03-06 06:50:00,
2013-03-05 23:00:00,49.1,44.0,30.02,SE,142,3.0,12.0,81,0.00,,,0.00,,2013-03-06 07:00:00,
2013-03-05 23:10:00,49.2,44.0,30.02,ENE,67,1.0,11.0,81,0.00,,,0.00,,2013-03-06 07:10:00,
2013-03-05 23:20:00,49.2,44.0,30.02,SSE,165,0.0,8.0,82,0.00,,,0.00,,2013-03-06 07:20:00,
2013-03-05 23:30:00,49.1,44.0,30.01,East,100,2.0,14.0,83,0.00,,,0.00,,2013-03-06 07:30:00,
2013-03-05 23:40:00,48.9,44.0,30.01,SSE,149,12.0,20.0,83,0.00,,,0.00,,2013-03-06 07:40:00,
2013-03-05 23:50:00,48.9,44.0,30.00,SSE,150,1.0,13.0,83,0.00,,,0.00,,2013-03-06 07:50:00,